createdAt,value
2022-10-31T00:01:36.945Z,7.60
2022-10-31T00:04:06.872Z,7.50
2022-10-31T00:06:35.096Z,7.50
2022-10-31T00:09:05.692Z,7.50
2022-10-31T00:11:33.984Z,7.40
2022-10-31T00:14:02.537Z,7.40
2022-10-31T00:16:31.024Z,7.40
2022-10-31T00:19:00.728Z,7.40
2022-10-31T00:21:30.923Z,7.40
2022-10-31T00:23:59.994Z,7.40
2022-10-31T00:26:29.301Z,7.40
2022-10-31T00:28:57.412Z,7.30
2022-10-31T00:31:25.590Z,7.30
2022-10-31T00:33:53.581Z,7.30
2022-10-31T00:36:22.120Z,7.20
2022-10-31T00:38:51.465Z,7.20
2022-10-31T00:41:20.011Z,7.20
2022-10-31T00:43:48.078Z,7.20
2022-10-31T00:46:16.245Z,7.20
2022-10-31T00:48:44.247Z,7.20
2022-10-31T00:51:12.706Z,7.10
2022-10-31T00:53:42.614Z,7.10
2022-10-31T00:56:12.018Z,7.10
2022-10-31T00:58:40.019Z,7.00
2022-10-31T01:01:09.033Z,7.00
2022-10-31T01:03:39.534Z,6.90
2022-10-31T01:06:14.321Z,6.90
2022-10-31T01:08:42.727Z,6.80
2022-10-31T01:11:17.355Z,6.80
2022-10-31T01:13:46.428Z,6.80
2022-10-31T01:16:16.787Z,6.80
2022-10-31T01:18:45.245Z,6.80
2022-10-31T01:21:15.606Z,6.70
2022-10-31T01:23:43.680Z,6.80
2022-10-31T01:26:18.277Z,6.70
2022-10-31T01:28:48.457Z,6.70
2022-10-31T01:31:17.999Z,6.70
2022-10-31T01:33:46.063Z,6.70
2022-10-31T01:36:19.476Z,6.70
2022-10-31T01:38:47.580Z,6.70
2022-10-31T01:41:19.885Z,6.70
2022-10-31T01:43:50.678Z,6.70
2022-10-31T01:46:22.659Z,6.60
2022-10-31T01:48:50.911Z,6.60
2022-10-31T01:51:22.397Z,6.50
2022-10-31T01:53:52.159Z,6.50
2022-10-31T01:56:21.482Z,6.50
2022-10-31T01:58:49.444Z,6.50
2022-10-31T02:01:19.794Z,6.50
2022-10-31T02:03:49.385Z,6.50
2022-10-31T02:06:26.395Z,6.50
2022-10-31T02:08:55.585Z,6.50
2022-10-31T02:11:25.583Z,6.50
2022-10-31T02:13:54.838Z,6.50
2022-10-31T02:16:24.171Z,6.50
2022-10-31T02:18:52.201Z,6.50
2022-10-31T02:21:26.229Z,6.50
2022-10-31T02:24:39.635Z,6.50
2022-10-31T02:27:23.649Z,6.50
2022-10-31T02:30:11.958Z,6.50
2022-10-31T02:33:02.506Z,6.50
2022-10-31T02:35:47.183Z,6.40
2022-10-31T02:38:27.042Z,6.40
2022-10-31T02:41:03.548Z,6.40
2022-10-31T02:43:42.407Z,6.40
2022-10-31T02:46:15.467Z,6.40
2022-10-31T02:48:47.330Z,6.40
2022-10-31T02:51:17.315Z,6.30
2022-10-31T02:53:45.278Z,6.30
2022-10-31T02:56:15.325Z,6.30
2022-10-31T02:58:48.278Z,6.30
2022-10-31T03:01:35.977Z,6.20
2022-10-31T03:04:22.453Z,6.20
2022-10-31T03:06:58.487Z,6.20
2022-10-31T03:09:34.425Z,6.20
2022-10-31T03:12:09.261Z,6.20
2022-10-31T03:14:43.184Z,6.20
2022-10-31T03:17:18.055Z,6.20
2022-10-31T03:19:51.609Z,6.20
2022-10-31T03:22:24.814Z,6.20
2022-10-31T03:24:55.710Z,6.10
2022-10-31T03:27:27.672Z,6.10
2022-10-31T03:29:59.454Z,6.10
2022-10-31T03:32:33.829Z,6.00
2022-10-31T03:35:06.046Z,6.00
2022-10-31T03:37:37.460Z,6.00
2022-10-31T03:40:08.667Z,6.00
2022-10-31T03:42:42.296Z,6.00
2022-10-31T03:45:14.992Z,6.10
2022-10-31T03:47:44.744Z,6.10
2022-10-31T03:50:17.145Z,6.10
2022-10-31T03:52:52.179Z,6.10
2022-10-31T03:55:26.135Z,6.00
2022-10-31T03:58:00.292Z,5.90
2022-10-31T04:00:29.030Z,5.90
2022-10-31T04:03:02.358Z,5.80
2022-10-31T04:05:35.466Z,5.80
2022-10-31T04:08:10.185Z,5.80
2022-10-31T04:10:40.685Z,5.80
2022-10-31T04:13:15.243Z,5.80
2022-10-31T04:15:51.723Z,5.90
2022-10-31T04:18:20.135Z,5.90
2022-10-31T04:20:51.894Z,5.90
2022-10-31T04:23:22.763Z,5.90
2022-10-31T04:25:51.767Z,5.90
2022-10-31T04:28:20.329Z,5.90
2022-10-31T04:30:49.051Z,5.90
2022-10-31T04:33:18.549Z,5.90
2022-10-31T04:35:48.649Z,5.90
2022-10-31T04:38:18.262Z,5.90
2022-10-31T04:40:48.026Z,5.80
2022-10-31T05:21:27.957Z,5.50
2022-10-31T05:24:00.826Z,5.50
2022-10-31T05:26:29.769Z,5.50
2022-10-31T05:28:57.956Z,5.60
2022-10-31T05:31:26.055Z,5.60
2022-10-31T05:33:55.284Z,5.60
2022-10-31T05:36:39.459Z,5.60
2022-10-31T05:39:13.911Z,5.60
2022-10-31T05:41:44.609Z,5.60
2022-10-31T05:44:24.499Z,5.60
2022-10-31T05:47:09.420Z,5.60
2022-10-31T05:49:56.159Z,5.60
2022-10-31T05:52:48.795Z,5.60
2022-10-31T05:55:35.123Z,5.50
2022-10-31T05:58:23.319Z,5.60
2022-10-31T06:01:00.223Z,5.60
2022-10-31T06:03:28.413Z,5.60
2022-10-31T06:06:01.782Z,5.60
2022-10-31T06:08:40.437Z,5.70
2022-10-31T06:11:14.523Z,5.70
2022-10-31T06:14:01.258Z,5.70
2022-10-31T06:16:46.700Z,5.80
2022-10-31T06:19:37.697Z,5.90
2022-10-31T06:22:06.200Z,5.90
2022-10-31T06:24:36.109Z,6.00
2022-10-31T06:27:19.549Z,6.00
2022-10-31T06:29:48.312Z,6.10
2022-10-31T06:32:24.224Z,6.20
2022-10-31T06:34:52.433Z,6.30
2022-10-31T06:37:20.437Z,6.40
2022-10-31T06:39:52.592Z,6.40
2022-10-31T06:42:20.682Z,6.50
2022-10-31T06:44:49.428Z,6.60
2022-10-31T06:48:15.641Z,6.70
2022-10-31T06:51:01.023Z,6.90
2022-10-31T06:53:30.807Z,6.90
2022-10-31T06:56:01.411Z,7.00
2022-10-31T06:58:30.998Z,7.10
2022-10-31T07:01:02.999Z,7.20
2022-10-31T07:03:31.165Z,7.40
2022-10-31T07:05:59.253Z,7.50
2022-10-31T07:08:27.437Z,7.60
2022-10-31T07:10:57.225Z,7.70
2022-10-31T07:13:27.557Z,7.90
2022-10-31T07:16:05.768Z,8.00
2022-10-31T07:18:36.203Z,8.20
2022-10-31T07:21:04.293Z,8.40
2022-10-31T07:23:33.861Z,8.50
2022-10-31T07:26:28.870Z,8.60
2022-10-31T07:28:58.238Z,8.80
2022-10-31T07:31:27.091Z,8.90
2022-10-31T07:33:59.306Z,9.00
2022-10-31T07:36:29.871Z,9.10
2022-10-31T07:39:03.358Z,9.20
2022-10-31T07:41:33.479Z,9.30
2022-10-31T07:44:02.873Z,9.40
2022-10-31T07:46:49.193Z,9.50
2022-10-31T07:49:35.604Z,9.60
2022-10-31T07:52:22.008Z,9.60
2022-10-31T07:55:16.835Z,9.80
2022-10-31T07:57:57.921Z,9.90
2022-10-31T08:00:27.728Z,9.90
2022-10-31T08:03:00.294Z,10.00
2022-10-31T08:05:58.639Z,10.00
2022-10-31T08:08:46.604Z,10.10
2022-10-31T08:11:14.564Z,10.20
2022-10-31T08:13:44.617Z,10.20
2022-10-31T08:16:17.854Z,10.30
2022-10-31T08:18:56.734Z,10.40
2022-10-31T08:21:25.377Z,10.50
2022-10-31T08:23:53.588Z,10.60
2022-10-31T08:26:24.968Z,10.70
2022-10-31T08:28:55.641Z,10.80
2022-10-31T08:31:33.157Z,11.00
2022-10-31T08:34:21.095Z,11.10
2022-10-31T08:36:54.718Z,11.30
2022-10-31T08:39:29.271Z,11.50
2022-10-31T08:41:57.367Z,11.60
2022-10-31T08:44:25.439Z,11.80
2022-10-31T08:46:55.553Z,12.00
2022-10-31T08:49:24.543Z,12.20
2022-10-31T08:51:53.251Z,12.30
2022-10-31T08:54:22.970Z,12.50
2022-10-31T08:56:55.884Z,12.60
2022-10-31T08:59:41.573Z,12.80
2022-10-31T09:02:29.554Z,13.00
2022-10-31T09:05:01.905Z,13.10
2022-10-31T09:07:30.252Z,13.30
2022-10-31T09:09:59.465Z,13.40
2022-10-31T09:12:29.271Z,13.60
2022-10-31T09:15:17.653Z,13.70
2022-10-31T09:17:51.194Z,13.70
2022-10-31T09:20:44.480Z,13.90
2022-10-31T09:23:14.823Z,13.90
2022-10-31T09:25:49.298Z,14.20
2022-10-31T09:28:36.824Z,14.10
2022-10-31T09:31:15.326Z,14.10
2022-10-31T09:33:50.802Z,14.30
2022-10-31T09:36:37.417Z,14.60
2022-10-31T09:39:08.303Z,14.80
2022-10-31T09:41:57.604Z,15.00
2022-10-31T09:44:39.593Z,15.30
2022-10-31T09:47:19.813Z,15.50
2022-10-31T09:50:15.933Z,15.60
2022-10-31T09:52:56.284Z,15.80
2022-10-31T09:55:33.123Z,15.60
2022-10-31T09:58:03.024Z,15.90
2022-10-31T10:00:33.077Z,15.90
2022-10-31T10:03:06.740Z,16.00
2022-10-31T10:05:43.063Z,16.20
2022-10-31T10:08:20.835Z,16.60
2022-10-31T10:11:10.692Z,16.70
2022-10-31T10:13:57.296Z,16.80
2022-10-31T10:16:40.051Z,16.70
2022-10-31T10:19:24.878Z,16.80
2022-10-31T10:22:03.862Z,17.00
2022-10-31T10:24:45.778Z,17.10
2022-10-31T10:27:23.884Z,17.30
2022-10-31T10:29:59.193Z,17.50
2022-10-31T10:32:31.058Z,17.50
2022-10-31T10:35:04.227Z,17.50
2022-10-31T10:37:38.050Z,17.50
2022-10-31T10:40:13.183Z,17.50
2022-10-31T10:42:58.515Z,17.50
2022-10-31T10:45:44.744Z,17.70
2022-10-31T10:48:17.768Z,17.50
2022-10-31T10:50:51.231Z,17.60
2022-10-31T10:53:36.355Z,17.50
2022-10-31T10:56:16.408Z,17.50
2022-10-31T10:58:46.231Z,17.80
2022-10-31T11:03:44.211Z,17.80
2022-10-31T11:06:22.935Z,17.80
2022-10-31T11:08:52.346Z,17.90
2022-10-31T11:11:30.565Z,17.90
2022-10-31T11:14:07.599Z,17.80
2022-10-31T11:16:41.400Z,18.00
2022-10-31T11:19:17.005Z,18.10
2022-10-31T11:21:52.618Z,18.30
2022-10-31T11:24:26.325Z,18.30
2022-10-31T11:27:04.966Z,18.40
2022-10-31T11:29:32.851Z,18.10
2022-10-31T11:32:02.709Z,18.00
2022-10-31T11:34:34.132Z,18.10
2022-10-31T11:37:11.856Z,18.40
2022-10-31T11:39:45.726Z,18.50
2022-10-31T11:42:14.107Z,18.40
2022-10-31T11:44:45.513Z,18.50
2022-10-31T11:47:17.090Z,18.50
2022-10-31T11:49:50.412Z,18.70
2022-10-31T11:52:23.999Z,18.70
2022-10-31T11:54:57.136Z,18.60
2022-10-31T11:57:29.905Z,18.30
2022-10-31T11:59:59.806Z,18.40
2022-10-31T12:02:28.449Z,18.30
2022-10-31T12:05:06.034Z,18.30
2022-10-31T12:07:34.003Z,18.30
2022-10-31T12:10:03.448Z,18.30
2022-10-31T12:12:44.465Z,18.40
2022-10-31T12:15:31.486Z,18.30
2022-10-31T12:18:19.558Z,18.50
2022-10-31T12:20:58.780Z,18.50
2022-10-31T12:23:36.658Z,18.60
2022-10-31T12:26:16.533Z,18.60
2022-10-31T12:29:02.280Z,18.60
2022-10-31T12:31:44.546Z,18.60
2022-10-31T12:34:49.396Z,18.50
2022-10-31T12:37:30.653Z,18.50
2022-10-31T12:40:25.989Z,18.40
2022-10-31T12:43:07.956Z,18.50
2022-10-31T12:45:48.169Z,18.20
2022-10-31T12:48:44.066Z,18.10
2022-10-31T12:51:21.132Z,17.90
2022-10-31T12:54:17.318Z,17.80
2022-10-31T12:56:53.878Z,17.60
2022-10-31T12:59:30.783Z,17.40
2022-10-31T13:02:04.889Z,17.30
2022-10-31T13:04:47.011Z,17.10
2022-10-31T13:07:19.662Z,17.10
2022-10-31T13:09:54.790Z,17.00
2022-10-31T13:12:24.804Z,16.80
2022-10-31T13:14:57.109Z,16.70
2022-10-31T13:17:30.690Z,16.60
2022-10-31T13:20:21.792Z,16.50
2022-10-31T13:22:53.912Z,16.40
2022-10-31T13:25:26.474Z,16.40
2022-10-31T13:27:59.039Z,16.30
2022-10-31T13:30:30.691Z,16.30
2022-10-31T13:33:03.750Z,16.20
2022-10-31T13:35:40.795Z,16.10
2022-10-31T13:38:18.803Z,16.00
2022-10-31T13:40:54.291Z,15.90
2022-10-31T13:43:31.683Z,15.80
2022-10-31T13:46:01.179Z,15.80
2022-10-31T13:48:42.184Z,15.80
2022-10-31T13:51:11.952Z,15.70
2022-10-31T13:53:46.529Z,15.70
2022-10-31T13:56:19.292Z,15.70
2022-10-31T13:59:01.319Z,15.60
2022-10-31T14:01:31.876Z,15.60
2022-10-31T14:04:13.507Z,15.60
2022-10-31T14:07:00.567Z,15.50
2022-10-31T14:09:35.099Z,15.40
2022-10-31T14:12:06.543Z,15.30
2022-10-31T14:14:48.889Z,15.30
2022-10-31T14:17:27.826Z,15.20
2022-10-31T14:20:02.437Z,15.00
2022-10-31T14:22:36.308Z,14.80
2022-10-31T14:25:26.870Z,14.70
2022-10-31T14:27:54.951Z,14.60
2022-10-31T14:30:25.483Z,14.40
2022-10-31T14:32:59.329Z,14.40
2022-10-31T14:35:48.919Z,14.20
2022-10-31T14:38:46.781Z,14.10
2022-10-31T14:41:43.735Z,14.00
2022-10-31T14:44:47.210Z,13.90
2022-10-31T14:47:23.963Z,13.80
2022-10-31T14:50:26.987Z,13.70
2022-10-31T14:52:58.305Z,13.60
2022-10-31T14:55:28.252Z,13.50
2022-10-31T14:57:59.805Z,13.30
2022-10-31T15:00:29.201Z,13.20
2022-10-31T15:03:17.299Z,13.10
2022-10-31T15:05:50.568Z,13.00
2022-10-31T15:08:31.811Z,12.90
2022-10-31T15:10:59.820Z,12.80
2022-10-31T15:13:27.837Z,12.70
2022-10-31T15:15:58.019Z,12.70
2022-10-31T15:18:28.354Z,12.60
2022-10-31T15:20:59.157Z,12.60
2022-10-31T15:23:29.363Z,12.40
2022-10-31T15:26:01.611Z,12.40
2022-10-31T15:28:30.253Z,12.30
2022-10-31T15:31:00.012Z,12.20
2022-10-31T15:33:36.566Z,12.20
2022-10-31T15:36:08.127Z,12.20
2022-10-31T15:38:56.950Z,12.10
2022-10-31T15:41:34.106Z,12.10
2022-10-31T15:44:07.378Z,12.00
2022-10-31T15:46:35.916Z,12.00
2022-10-31T15:49:03.905Z,11.90
2022-10-31T15:51:38.276Z,11.90
2022-10-31T15:54:06.373Z,11.90
2022-10-31T15:56:34.632Z,11.90
2022-10-31T16:44:54.659Z,12.20
2022-10-31T16:47:25.994Z,12.20
2022-10-31T16:50:00.821Z,12.20
2022-10-31T16:52:37.957Z,12.20
2022-10-31T16:55:14.046Z,12.20
2022-10-31T16:57:44.161Z,12.20
2022-10-31T17:00:17.562Z,12.20
2022-10-31T17:02:47.115Z,12.20
2022-10-31T17:05:16.485Z,12.20
2022-10-31T17:07:44.610Z,12.30
2022-10-31T17:10:14.239Z,12.30
2022-10-31T17:12:45.815Z,12.40
2022-10-31T17:15:20.344Z,12.30
2022-10-31T17:17:48.390Z,12.40
2022-10-31T17:20:22.514Z,12.40
2022-10-31T17:22:50.875Z,12.50
2022-10-31T17:25:20.592Z,12.50
2022-10-31T17:27:48.619Z,12.40
2022-10-31T17:30:19.142Z,12.50
2022-10-31T17:32:48.169Z,12.40
2022-10-31T17:35:17.615Z,12.40
2022-10-31T17:37:46.588Z,12.40
2022-10-31T17:40:17.694Z,12.40
2022-10-31T17:42:50.530Z,12.40
2022-10-31T17:45:20.462Z,12.40
2022-10-31T17:47:49.554Z,12.40
2022-10-31T17:50:18.069Z,12.40
2022-10-31T17:52:46.322Z,12.40
2022-10-31T17:55:14.560Z,12.40
2022-10-31T17:57:44.050Z,12.40
2022-10-31T18:00:14.849Z,12.40
2022-10-31T18:02:44.740Z,12.40
2022-10-31T18:05:13.215Z,12.40
2022-10-31T18:07:41.221Z,12.40
2022-10-31T18:10:10.645Z,12.40
2022-10-31T18:12:38.811Z,12.40
2022-10-31T18:15:07.630Z,12.40
2022-10-31T18:17:38.063Z,12.30
2022-10-31T18:20:11.506Z,12.40
2022-10-31T18:22:39.513Z,12.30
2022-10-31T18:25:08.285Z,12.30
2022-10-31T18:27:36.303Z,12.40
2022-10-31T18:30:04.600Z,12.40
2022-10-31T18:32:32.552Z,12.40
2022-10-31T18:35:00.694Z,12.40
2022-10-31T18:37:31.460Z,12.40
2022-10-31T18:39:59.378Z,12.40
2022-10-31T18:42:27.543Z,12.40
2022-10-31T18:44:55.512Z,12.60
2022-10-31T18:47:23.529Z,12.40
2022-10-31T18:49:51.743Z,12.50
2022-10-31T18:52:20.157Z,12.50
2022-10-31T18:54:49.487Z,12.50
2022-10-31T18:57:17.502Z,12.50
2022-10-31T18:59:45.461Z,12.50
2022-10-31T19:02:15.033Z,12.50
2022-10-31T19:04:43.451Z,12.60
2022-10-31T19:07:11.453Z,12.50
2022-10-31T19:09:39.457Z,12.50
2022-10-31T19:12:09.281Z,12.50
2022-10-31T19:14:37.278Z,12.50
2022-10-31T19:17:05.272Z,12.50
2022-10-31T19:19:33.325Z,12.60
2022-10-31T19:22:01.755Z,12.50
2022-10-31T19:24:29.791Z,12.50
2022-10-31T19:26:58.378Z,12.50
2022-10-31T19:29:28.237Z,12.50
2022-10-31T19:31:56.166Z,12.50
2022-10-31T19:34:24.156Z,12.50
2022-10-31T19:36:52.155Z,12.50
2022-10-31T19:39:20.102Z,12.50
2022-10-31T19:41:48.097Z,12.50
2022-10-31T19:44:16.297Z,12.50
2022-10-31T19:46:53.479Z,12.50
2022-10-31T19:49:22.041Z,12.50
2022-10-31T19:51:49.998Z,12.50
2022-10-31T19:54:18.279Z,12.40
2022-10-31T19:56:46.237Z,12.50
2022-10-31T19:59:14.223Z,12.40
2022-10-31T20:01:42.301Z,12.40
2022-10-31T20:04:11.951Z,12.50
2022-10-31T20:06:41.149Z,12.50
2022-10-31T20:09:13.446Z,12.40
2022-10-31T20:11:42.805Z,12.50
2022-10-31T20:14:13.210Z,12.40
2022-10-31T20:16:41.660Z,12.50
2022-10-31T20:19:11.388Z,12.50
2022-10-31T20:21:41.294Z,12.40
2022-10-31T20:24:12.523Z,12.40
2022-10-31T20:26:41.718Z,12.40
2022-10-31T20:29:15.731Z,12.40
2022-10-31T20:31:44.543Z,12.50
2022-10-31T20:34:13.986Z,12.50
2022-10-31T20:36:42.095Z,12.50
2022-10-31T20:39:10.722Z,12.50
2022-10-31T20:41:39.370Z,12.50
2022-10-31T20:44:07.359Z,12.40
2022-10-31T20:46:35.487Z,12.40
2022-10-31T20:49:03.702Z,12.40
2022-10-31T20:51:32.951Z,12.40
2022-10-31T20:54:01.505Z,12.40
2022-10-31T20:56:30.105Z,12.40
2022-10-31T20:58:58.731Z,12.40
2022-10-31T21:01:28.635Z,12.40
2022-10-31T21:03:56.922Z,12.40
2022-10-31T21:06:25.467Z,12.40
2022-10-31T21:08:55.132Z,12.40
2022-10-31T21:11:25.127Z,12.40
2022-10-31T21:13:53.804Z,12.40
2022-10-31T21:16:23.798Z,12.40
2022-10-31T21:18:53.030Z,12.30
2022-10-31T21:21:27.603Z,12.30
2022-10-31T21:24:03.227Z,12.30
2022-10-31T21:26:34.491Z,12.30
2022-10-31T21:29:03.539Z,12.30
2022-10-31T21:31:31.536Z,12.30
2022-10-31T21:33:59.805Z,12.30
2022-10-31T21:36:27.853Z,12.30
2022-10-31T21:38:57.020Z,12.30
2022-10-31T21:41:27.042Z,12.30
2022-10-31T21:43:56.049Z,12.30
2022-10-31T21:46:25.879Z,12.30
2022-10-31T21:48:53.897Z,12.30
2022-10-31T21:51:23.939Z,12.30
2022-10-31T21:54:10.250Z,12.20
2022-10-31T21:56:40.202Z,12.30
2022-10-31T21:59:08.302Z,12.20
2022-10-31T22:01:37.023Z,12.20
2022-10-31T22:04:05.800Z,12.20
2022-10-31T22:06:34.647Z,12.20
2022-10-31T22:09:06.126Z,12.20
2022-10-31T22:11:34.544Z,12.20
2022-10-31T22:14:04.189Z,12.20
2022-10-31T22:16:34.749Z,12.20
2022-10-31T22:19:05.526Z,12.20
2022-10-31T22:21:37.937Z,12.20
2022-10-31T22:24:07.695Z,12.20
2022-10-31T22:26:36.363Z,12.20
2022-10-31T22:29:07.419Z,12.10
2022-10-31T22:31:38.354Z,12.20
2022-10-31T22:34:06.608Z,12.10
2022-10-31T22:36:34.696Z,12.10
2022-10-31T22:39:02.629Z,12.10
2022-10-31T22:41:33.086Z,12.20
2022-10-31T22:44:01.720Z,12.10
2022-10-31T22:46:33.382Z,12.10
2022-10-31T22:49:02.856Z,12.10
2022-10-31T22:51:32.273Z,12.00
2022-10-31T22:54:00.395Z,12.00
2022-10-31T22:56:30.895Z,12.00
2022-10-31T22:58:59.373Z,11.90
2022-10-31T23:01:29.457Z,11.90
2022-10-31T23:03:59.167Z,11.90
2022-10-31T23:06:30.138Z,11.90
2022-10-31T23:08:58.721Z,11.90
2022-10-31T23:11:29.154Z,11.80
2022-10-31T23:14:09.076Z,11.80
2022-10-31T23:16:38.595Z,11.90
2022-10-31T23:19:09.245Z,11.80
2022-10-31T23:21:57.336Z,11.90
2022-10-31T23:24:32.940Z,11.80
2022-10-31T23:27:10.441Z,11.80
2022-10-31T23:29:44.350Z,11.80
2022-10-31T23:32:16.049Z,11.80
2022-10-31T23:34:45.637Z,11.80
2022-10-31T23:37:14.451Z,11.80
2022-10-31T23:39:42.530Z,11.80
2022-10-31T23:42:11.135Z,11.80
2022-10-31T23:44:39.172Z,11.70
2022-10-31T23:47:07.449Z,11.70
2022-10-31T23:49:35.629Z,11.70
2022-10-31T23:52:05.842Z,11.70
2022-10-31T23:54:34.430Z,11.70
2022-10-31T23:57:03.099Z,11.70
2022-10-31T23:59:31.882Z,11.70
